createdAt,value
2017-07-15T00:00:13.215Z,0
2017-07-15T00:01:25.836Z,0
2017-07-15T00:02:38.162Z,0
2017-07-15T00:03:50.782Z,0
2017-07-15T00:05:03.364Z,0
2017-07-15T00:06:15.677Z,0
2017-07-15T00:07:27.357Z,0
2017-07-15T00:08:39.963Z,0
2017-07-15T00:09:52.543Z,0
2017-07-15T00:11:04.531Z,0
2017-07-15T00:12:16.184Z,0
2017-07-15T00:13:28.807Z,0
2017-07-15T00:14:40.817Z,0
2017-07-15T00:15:53.125Z,0
2017-07-15T00:17:05.489Z,0
2017-07-15T00:18:17.767Z,0
2017-07-15T00:19:30.402Z,0
2017-07-15T00:20:42.981Z,0
2017-07-15T00:21:55.608Z,0
2017-07-15T00:23:07.552Z,0
2017-07-15T00:24:19.244Z,0
2017-07-15T00:25:31.507Z,0
2017-07-15T00:26:44.081Z,0
2017-07-15T00:27:56.761Z,0
2017-07-15T00:29:09.368Z,0
2017-07-15T00:30:22.038Z,0
2017-07-15T00:31:34.360Z,0
2017-07-15T00:32:46.912Z,0
2017-07-15T00:33:59.530Z,0
2017-07-15T00:35:11.773Z,0
2017-07-15T00:36:24.020Z,0
2017-07-15T00:37:36.357Z,0
2017-07-15T00:38:48.973Z,0
2017-07-15T00:40:01.565Z,0
2017-07-15T00:41:14.199Z,0
2017-07-15T00:42:26.789Z,0
2017-07-15T00:43:39.340Z,0
2017-07-15T00:44:51.287Z,0
2017-07-15T00:46:03.871Z,0
2017-07-15T00:47:16.410Z,0
2017-07-15T00:48:29.070Z,0
2017-07-15T00:49:41.347Z,0
2017-07-15T00:50:52.999Z,0
2017-07-15T00:52:05.552Z,0
2017-07-15T00:53:17.885Z,0
2017-07-15T00:54:30.432Z,0
2017-07-15T00:55:42.726Z,0
2017-07-15T00:56:55.335Z,0
2017-07-15T00:58:07.297Z,0
2017-07-15T00:59:19.592Z,0
2017-07-15T01:00:32.225Z,0
2017-07-15T01:01:44.854Z,0
2017-07-15T01:02:57.153Z,0
2017-07-15T01:04:09.113Z,0
2017-07-15T01:05:21.373Z,0
2017-07-15T01:06:33.713Z,0
2017-07-15T01:07:46.261Z,0
2017-07-15T01:08:58.511Z,0
2017-07-15T01:10:10.807Z,0
2017-07-15T01:11:23.373Z,0
2017-07-15T01:12:35.960Z,0
2017-07-15T01:13:48.540Z,0
2017-07-15T01:15:01.112Z,0
2017-07-15T01:16:12.509Z,0
2017-07-15T01:17:24.825Z,0
2017-07-15T01:18:37.453Z,0
2017-07-15T01:19:50.075Z,0
2017-07-15T01:21:02.096Z,0
2017-07-15T01:22:14.369Z,0
2017-07-15T01:23:25.707Z,0
2017-07-15T01:24:37.366Z,0
2017-07-15T01:25:49.949Z,0
2017-07-15T01:27:02.285Z,0
2017-07-15T01:28:14.530Z,0
2017-07-15T01:29:26.524Z,0
2017-07-15T01:30:38.520Z,0
2017-07-15T01:31:51.078Z,0
2017-07-15T01:33:03.697Z,0
2017-07-15T01:34:15.978Z,0
2017-07-15T01:35:28.602Z,0
2017-07-15T01:36:41.268Z,0
2017-07-15T01:37:53.537Z,0
2017-07-15T01:39:05.790Z,0
2017-07-15T01:40:18.375Z,0
2017-07-15T01:41:30.966Z,0
2017-07-15T01:42:43.264Z,0
2017-07-15T01:43:55.558Z,0
2017-07-15T01:45:06.947Z,0
2017-07-15T01:46:18.645Z,0
2017-07-15T01:47:31.242Z,0
2017-07-15T01:48:43.530Z,0
2017-07-15T01:49:56.191Z,0
2017-07-15T01:51:08.502Z,0
2017-07-15T01:52:21.032Z,0
2017-07-15T01:53:32.969Z,0
2017-07-15T01:54:45.578Z,0
2017-07-15T01:55:57.857Z,0
2017-07-15T01:57:09.831Z,0
2017-07-15T01:58:22.146Z,0
2017-07-15T01:59:34.730Z,0
2017-07-15T02:00:47.060Z,0
2017-07-15T02:01:59.625Z,0
2017-07-15T02:03:11.945Z,0
2017-07-15T02:04:24.516Z,0
2017-07-15T02:05:37.120Z,0
2017-07-15T02:06:49.421Z,0
2017-07-15T02:08:02.056Z,0
2017-07-15T02:09:14.026Z,0
2017-07-15T02:10:26.671Z,0
2017-07-15T02:11:39.279Z,0
2017-07-15T02:12:51.866Z,0
2017-07-15T02:14:04.219Z,0
2017-07-15T02:15:16.854Z,0
2017-07-15T02:16:29.124Z,4
2017-07-15T02:17:41.052Z,4
2017-07-15T02:18:53.339Z,4
2017-07-15T02:20:05.628Z,0
2017-07-15T02:21:17.558Z,4
2017-07-15T02:22:29.245Z,4
2017-07-15T02:23:41.224Z,4
2017-07-15T02:24:52.837Z,4
2017-07-15T02:26:05.419Z,4
2017-07-15T02:27:17.925Z,8
2017-07-15T02:28:30.522Z,8
2017-07-15T02:29:43.212Z,8
2017-07-15T02:30:55.808Z,12
2017-07-15T02:32:08.045Z,12
2017-07-15T02:33:20.019Z,12
2017-07-15T02:34:32.641Z,16
2017-07-15T02:35:44.951Z,16
2017-07-15T02:36:56.598Z,24
2017-07-15T02:38:09.263Z,28
2017-07-15T02:39:21.592Z,28
2017-07-15T02:40:33.873Z,36
2017-07-15T02:41:45.798Z,40
2017-07-15T02:42:58.404Z,44
2017-07-15T02:44:11.048Z,48
2017-07-15T02:45:23.340Z,56
2017-07-15T02:46:35.385Z,64
2017-07-15T02:47:47.986Z,72
2017-07-15T02:48:59.995Z,80
2017-07-15T02:50:11.662Z,88
2017-07-15T02:51:24.007Z,100
2017-07-15T02:52:36.256Z,112
2017-07-15T02:53:48.525Z,124
2017-07-15T02:55:01.095Z,136
2017-07-15T02:56:13.101Z,152
2017-07-15T02:57:24.782Z,164
2017-07-15T02:58:37.376Z,180
2017-07-15T02:59:49.977Z,196
2017-07-15T03:01:02.281Z,212
2017-07-15T03:02:13.895Z,232
2017-07-15T03:03:26.449Z,252
2017-07-15T03:04:38.743Z,276
2017-07-15T03:05:50.688Z,304
2017-07-15T03:07:02.704Z,336
2017-07-15T03:08:15.320Z,364
2017-07-15T03:09:27.597Z,404
2017-07-15T03:10:40.208Z,440
2017-07-15T03:11:52.189Z,488
2017-07-15T03:13:04.513Z,536
2017-07-15T03:14:16.841Z,576
2017-07-15T03:15:28.550Z,628
2017-07-15T03:16:39.862Z,672
2017-07-15T03:17:52.190Z,728
2017-07-15T03:19:04.802Z,784
2017-07-15T03:20:17.145Z,844
2017-07-15T03:21:29.719Z,908
2017-07-15T03:22:41.687Z,984
2017-07-15T03:23:53.083Z,1068
2017-07-15T03:25:05.435Z,1144
2017-07-15T03:26:17.989Z,1212
2017-07-15T03:27:30.573Z,1272
2017-07-15T03:28:42.880Z,1328
2017-07-15T03:29:55.185Z,1396
2017-07-15T03:31:07.136Z,1468
2017-07-15T03:32:19.728Z,1552
2017-07-15T03:33:32.020Z,1624
2017-07-15T03:34:44.594Z,1692
2017-07-15T03:35:56.882Z,1756
2017-07-15T03:37:09.144Z,1808
2017-07-15T03:38:21.779Z,1868
2017-07-15T03:39:34.404Z,1932
2017-07-15T03:40:46.391Z,2004
2017-07-15T03:41:58.998Z,2108
2017-07-15T03:43:10.944Z,2224
2017-07-15T03:44:22.964Z,2376
2017-07-15T03:45:34.274Z,2548
2017-07-15T03:46:45.617Z,2720
2017-07-15T03:47:56.667Z,2900
2017-07-15T03:49:08.042Z,3088
2017-07-15T03:50:19.756Z,3264
2017-07-15T03:51:32.045Z,3412
2017-07-15T03:52:44.319Z,3520
2017-07-15T03:53:56.987Z,3548
2017-07-15T03:55:08.627Z,3540
2017-07-15T03:56:20.931Z,3524
2017-07-15T03:57:33.182Z,3528
2017-07-15T03:58:45.439Z,3512
2017-07-15T03:59:57.430Z,3504
2017-07-15T04:01:09.679Z,3508
2017-07-15T04:02:21.323Z,3512
2017-07-15T04:03:32.964Z,3492
2017-07-15T04:04:45.553Z,3508
2017-07-15T04:05:57.216Z,3552
2017-07-15T04:07:09.952Z,3616
2017-07-15T04:08:22.521Z,3684
2017-07-15T04:09:34.769Z,3788
2017-07-15T04:10:46.785Z,3952
2017-07-15T04:11:58.747Z,4168
2017-07-15T04:13:11.100Z,4400
2017-07-15T04:14:23.632Z,4576
2017-07-15T04:15:35.991Z,4680
2017-07-15T04:16:48.573Z,4680
2017-07-15T04:18:01.202Z,4640
2017-07-15T04:19:13.486Z,4616
2017-07-15T04:20:26.065Z,4620
2017-07-15T04:21:37.779Z,4600
2017-07-15T04:22:49.748Z,4600
2017-07-15T04:24:02.308Z,4644
2017-07-15T04:25:14.846Z,4736
2017-07-15T04:26:26.824Z,4784
2017-07-15T04:27:39.076Z,4896
2017-07-15T04:28:51.644Z,5012
2017-07-15T04:30:04.255Z,5208
2017-07-15T04:31:16.525Z,5372
2017-07-15T04:32:29.141Z,5528
2017-07-15T04:33:41.767Z,5636
2017-07-15T04:34:54.362Z,5704
2017-07-15T04:36:06.380Z,5768
2017-07-15T04:37:18.367Z,5780
2017-07-15T04:38:30.626Z,5800
2017-07-15T04:39:42.944Z,5872
2017-07-15T04:40:55.231Z,5968
2017-07-15T04:42:07.767Z,6072
2017-07-15T04:43:20.362Z,6124
2017-07-15T04:44:32.625Z,6112
2017-07-15T04:45:45.279Z,6144
2017-07-15T04:46:57.937Z,6372
2017-07-15T04:48:09.916Z,6628
2017-07-15T04:49:21.860Z,6908
2017-07-15T04:50:34.430Z,7600
2017-07-15T04:51:46.657Z,8232
2017-07-15T04:52:59.287Z,8760
2017-07-15T04:54:11.902Z,9140
2017-07-15T04:55:24.228Z,9292
2017-07-15T04:56:36.491Z,9820
2017-07-15T04:57:49.034Z,10124
2017-07-15T04:59:01.721Z,10188
2017-07-15T05:00:13.773Z,10504
2017-07-15T05:01:25.423Z,10852
2017-07-15T05:02:37.667Z,11272
2017-07-15T05:03:49.985Z,11464
2017-07-15T05:05:01.681Z,11440
2017-07-15T05:06:13.053Z,11240
2017-07-15T05:07:24.436Z,11032
2017-07-15T05:08:36.746Z,10688
2017-07-15T05:09:49.017Z,10488
2017-07-15T05:11:00.317Z,10028
2017-07-15T05:12:12.337Z,9600
2017-07-15T05:13:24.571Z,9244
2017-07-15T05:14:37.151Z,8788
2017-07-15T05:15:49.108Z,8648
2017-07-15T05:17:01.393Z,8744
2017-07-15T05:18:13.989Z,8864
2017-07-15T05:19:26.619Z,9056
2017-07-15T05:20:38.990Z,9408
2017-07-15T05:21:51.574Z,10276
2017-07-15T05:23:03.540Z,10820
2017-07-15T05:24:14.885Z,11336
2017-07-15T05:25:26.857Z,12248
2017-07-15T05:26:38.851Z,13428
2017-07-15T05:27:50.836Z,13976
2017-07-15T05:29:03.356Z,12932
2017-07-15T05:30:15.376Z,13372
2017-07-15T05:31:28.030Z,20640
2017-07-15T05:32:40.715Z,28896
2017-07-15T05:33:53.302Z,33792
2017-07-15T05:35:05.305Z,29184
2017-07-15T05:36:17.954Z,19456
2017-07-15T05:37:29.648Z,23648
2017-07-15T05:38:42.244Z,22848
2017-07-15T05:39:54.208Z,19328
2017-07-15T05:41:06.479Z,17856
2017-07-15T05:42:19.083Z,17140
2017-07-15T05:43:31.346Z,17824
2017-07-15T05:44:43.989Z,18144
2017-07-15T05:45:56.526Z,18496
2017-07-15T05:47:08.800Z,18464
2017-07-15T05:48:21.389Z,20064
2017-07-15T05:49:33.969Z,20064
2017-07-15T05:50:46.327Z,18656
2017-07-15T05:51:58.929Z,18816
2017-07-15T05:53:11.249Z,19488
2017-07-15T05:54:23.271Z,20512
2017-07-15T05:55:35.592Z,18912
2017-07-15T05:56:48.200Z,17540
2017-07-15T05:58:01.027Z,17088
2017-07-15T05:59:13.680Z,17112
2017-07-15T06:00:26.219Z,16376
2017-07-15T06:01:38.817Z,14992
2017-07-15T06:02:51.415Z,14452
2017-07-15T06:04:04.033Z,14336
2017-07-15T06:05:16.339Z,14484
2017-07-15T06:06:28.926Z,15156
2017-07-15T06:07:41.279Z,14996
2017-07-15T06:08:53.916Z,15096
2017-07-15T06:10:06.475Z,15624
2017-07-15T06:11:18.810Z,16592
2017-07-15T06:12:31.390Z,16128
2017-07-15T06:13:43.970Z,16104
2017-07-15T06:14:56.596Z,16612
2017-07-15T06:16:09.123Z,15092
2017-07-15T06:17:21.747Z,14632
2017-07-15T06:18:34.339Z,17672
2017-07-15T06:19:46.610Z,17344
2017-07-15T06:20:58.905Z,16120
2017-07-15T06:22:10.896Z,15948
2017-07-15T06:23:22.220Z,17300
2017-07-15T06:24:34.535Z,19744
2017-07-15T06:25:46.765Z,19360
2017-07-15T06:26:59.440Z,21792
2017-07-15T06:28:11.727Z,31008
2017-07-15T06:29:24.291Z,24672
2017-07-15T06:30:36.884Z,15528
2017-07-15T06:31:48.816Z,26112
2017-07-15T06:33:01.447Z,21984
2017-07-15T06:34:12.806Z,17764
2017-07-15T06:35:24.832Z,17788
2017-07-15T06:36:37.401Z,16928
2017-07-15T06:37:49.335Z,20192
2017-07-15T06:39:01.628Z,14392
2017-07-15T06:40:14.286Z,15952
2017-07-15T06:41:26.612Z,18912
2017-07-15T06:42:39.260Z,23136
2017-07-15T06:43:51.849Z,43296
2017-07-15T06:45:04.197Z,45504
2017-07-15T06:46:16.445Z,46720
2017-07-15T06:47:29.116Z,50528
2017-07-15T06:48:41.720Z,50176
2017-07-15T06:49:54.007Z,46912
2017-07-15T06:51:06.637Z,46944
2017-07-15T06:52:18.594Z,38048
2017-07-15T06:53:31.180Z,36992
2017-07-15T06:54:43.188Z,36544
2017-07-15T06:55:55.816Z,34912
2017-07-15T06:57:08.422Z,38048
2017-07-15T06:58:20.749Z,38592
2017-07-15T06:59:33.060Z,40064
2017-07-15T07:00:45.085Z,43936
2017-07-15T07:01:57.361Z,44576
2017-07-15T07:03:10.234Z,46016
2017-07-15T07:04:22.604Z,49376
2017-07-15T07:05:35.200Z,52544
2017-07-15T07:06:47.809Z,52416
2017-07-15T07:08:00.427Z,52256
2017-07-15T07:09:12.763Z,53888
2017-07-15T07:10:25.350Z,48288
2017-07-15T07:11:37.591Z,53088
2017-07-15T07:12:50.203Z,59296
2017-07-15T07:14:02.501Z,60608
2017-07-15T07:15:14.804Z,58240
2017-07-15T07:16:27.465Z,57760
2017-07-15T07:17:40.089Z,54240
2017-07-15T07:18:52.131Z,55328
2017-07-15T07:20:04.763Z,55904
2017-07-15T07:21:16.744Z,54848
2017-07-15T07:22:28.742Z,58240
2017-07-15T07:23:40.418Z,57536
2017-07-15T07:24:52.977Z,55744
2017-07-15T07:26:04.974Z,57728
2017-07-15T07:27:17.207Z,59104
2017-07-15T07:28:29.784Z,56544
2017-07-15T07:29:42.469Z,55424
2017-07-15T07:30:54.739Z,55520
2017-07-15T07:32:06.728Z,59040
2017-07-15T07:33:19.314Z,57120
2017-07-15T07:34:31.876Z,55680
2017-07-15T07:35:44.250Z,56864
2017-07-15T07:36:56.579Z,62432
2017-07-15T07:38:08.872Z,62048
2017-07-15T07:39:20.884Z,60832
2017-07-15T07:40:32.905Z,59424
2017-07-15T07:41:45.521Z,60416
2017-07-15T07:42:57.537Z,61696
2017-07-15T07:44:09.824Z,61856
2017-07-15T07:45:22.489Z,62112
2017-07-15T07:46:35.099Z,58464
2017-07-15T07:47:47.812Z,60128
2017-07-15T07:49:00.402Z,60096
2017-07-15T07:50:12.746Z,59040
2017-07-15T07:51:25.378Z,60512
2017-07-15T07:52:37.982Z,62080
2017-07-15T07:53:49.637Z,62496
2017-07-15T07:55:02.268Z,63904
2017-07-15T07:56:14.920Z,66816
2017-07-15T07:57:27.231Z,68576
2017-07-15T07:58:39.870Z,67296
2017-07-15T07:59:52.450Z,69344
2017-07-15T08:01:04.764Z,71104
2017-07-15T08:02:16.754Z,69696
2017-07-15T08:03:29.355Z,69184
2017-07-15T08:04:41.663Z,72064
2017-07-15T08:05:53.970Z,74336
2017-07-15T08:07:06.664Z,75328
2017-07-15T08:08:19.212Z,72704
2017-07-15T08:09:31.157Z,70272
2017-07-15T08:10:43.503Z,71776
2017-07-15T08:11:55.804Z,70528
2017-07-15T08:13:08.102Z,71072
2017-07-15T08:14:20.399Z,70464
2017-07-15T08:15:33.020Z,51712
2017-07-15T08:16:45.661Z,69056
2017-07-15T08:17:57.956Z,65920
2017-07-15T08:19:10.274Z,72192
2017-07-15T08:20:22.851Z,72448
2017-07-15T08:21:35.480Z,73536
2017-07-15T08:22:47.186Z,74176
2017-07-15T08:23:58.900Z,78016
2017-07-15T08:25:11.508Z,79648
2017-07-15T08:26:24.119Z,80448
2017-07-15T08:27:35.483Z,81728
2017-07-15T08:28:48.061Z,80928
2017-07-15T08:30:00.114Z,82656
2017-07-15T08:31:11.463Z,80416
2017-07-15T08:32:23.722Z,83072
2017-07-15T08:33:36.013Z,73312
2017-07-15T08:34:48.670Z,14892
2017-07-15T08:36:01.273Z,13228
2017-07-15T08:37:13.867Z,13940
2017-07-15T08:38:25.934Z,16724
2017-07-15T08:39:38.204Z,39264
2017-07-15T08:40:50.737Z,17024
2017-07-15T08:42:03.053Z,17288
2017-07-15T08:43:15.036Z,17548
2017-07-15T08:44:27.340Z,19552
2017-07-15T08:45:39.984Z,21344
2017-07-15T08:46:51.886Z,21824
2017-07-15T08:48:03.913Z,21312
2017-07-15T08:49:16.198Z,20576
2017-07-15T08:50:28.534Z,39200
2017-07-15T08:51:40.849Z,86464
2017-07-15T08:52:52.571Z,90112
2017-07-15T08:54:04.910Z,84896
2017-07-15T08:55:17.138Z,83136
2017-07-15T08:56:29.773Z,65504
2017-07-15T08:57:42.343Z,20800
2017-07-15T08:58:54.650Z,22496
2017-07-15T09:00:07.210Z,74496
2017-07-15T09:01:19.484Z,59872
2017-07-15T09:02:32.140Z,28576
2017-07-15T09:03:44.465Z,29664
2017-07-15T09:04:57.070Z,29728
2017-07-15T09:06:09.381Z,31232
2017-07-15T09:07:21.645Z,27232
2017-07-15T09:08:34.298Z,23424
2017-07-15T09:09:46.659Z,18816
2017-07-15T09:10:58.634Z,16084
2017-07-15T09:12:10.299Z,15736
2017-07-15T09:13:22.613Z,14444
2017-07-15T09:14:34.926Z,14272
2017-07-15T09:15:47.262Z,15436
2017-07-15T09:16:59.894Z,16572
2017-07-15T09:18:11.874Z,18076
2017-07-15T09:19:24.485Z,54560
2017-07-15T09:20:36.782Z,81696
2017-07-15T09:21:49.084Z,42848
2017-07-15T09:23:01.033Z,19232
2017-07-15T09:24:13.380Z,20544
2017-07-15T09:25:25.399Z,22656
2017-07-15T09:26:37.369Z,25152
2017-07-15T09:27:49.946Z,83680
2017-07-15T09:29:02.225Z,81152
2017-07-15T09:30:14.557Z,83616
2017-07-15T09:31:26.821Z,87328
2017-07-15T09:32:39.391Z,87168
2017-07-15T09:33:51.694Z,88256
2017-07-15T09:35:04.065Z,54240
2017-07-15T09:36:16.366Z,21056
2017-07-15T09:37:29.023Z,19584
2017-07-15T09:38:40.968Z,20960
2017-07-15T09:39:53.555Z,27008
2017-07-15T09:41:05.924Z,38528
2017-07-15T09:42:18.227Z,87424
2017-07-15T09:43:30.939Z,84864
2017-07-15T09:44:43.214Z,45632
2017-07-15T09:45:55.105Z,90912
2017-07-15T09:47:07.146Z,88224
2017-07-15T09:48:19.746Z,83456
2017-07-15T09:49:32.345Z,18432
2017-07-15T09:50:44.661Z,18400
2017-07-15T09:51:56.676Z,19520
2017-07-15T09:53:08.332Z,20448
2017-07-15T09:54:20.956Z,20448
2017-07-15T09:55:33.266Z,21856
2017-07-15T09:56:45.557Z,23776
2017-07-15T09:57:57.868Z,28256
2017-07-15T09:59:09.895Z,86112
2017-07-15T10:00:22.231Z,62592
2017-07-15T10:01:34.950Z,22688
2017-07-15T10:02:47.197Z,22528
2017-07-15T10:03:59.151Z,21984
2017-07-15T10:05:10.528Z,23968
2017-07-15T10:06:23.167Z,32704
2017-07-15T10:07:35.459Z,22336
2017-07-15T10:08:47.744Z,19264
2017-07-15T10:10:00.084Z,18720
2017-07-15T10:11:12.649Z,19328
2017-07-15T10:12:23.726Z,19808
2017-07-15T10:13:36.387Z,20320
2017-07-15T10:14:49.006Z,20896
2017-07-15T10:16:01.635Z,22208
2017-07-15T10:17:13.323Z,26176
2017-07-15T10:18:25.956Z,78816
2017-07-15T10:19:38.305Z,65248
2017-07-15T10:20:50.913Z,80352
2017-07-15T10:22:03.143Z,82848
2017-07-15T10:23:14.490Z,55648
2017-07-15T10:24:26.180Z,80032
2017-07-15T10:25:37.870Z,80032
2017-07-15T10:26:50.509Z,81024
2017-07-15T10:28:03.111Z,81376
2017-07-15T10:29:15.411Z,78272
2017-07-15T10:30:27.655Z,20800
2017-07-15T10:31:40.010Z,82336
2017-07-15T10:32:52.029Z,80288
2017-07-15T10:34:04.034Z,21376
2017-07-15T10:35:16.049Z,24704
2017-07-15T10:36:28.049Z,84000
2017-07-15T10:37:40.372Z,84416
2017-07-15T10:38:52.343Z,19020
2017-07-15T10:40:04.597Z,20192
2017-07-15T10:41:17.205Z,80768
2017-07-15T10:42:29.164Z,81152
2017-07-15T10:43:41.471Z,83392
2017-07-15T10:44:53.797Z,84928
2017-07-15T10:46:06.099Z,88160
2017-07-15T10:47:18.688Z,89856
2017-07-15T10:48:30.695Z,89664
2017-07-15T10:49:42.987Z,88928
2017-07-15T10:50:55.577Z,90784
2017-07-15T10:52:07.617Z,91712
2017-07-15T10:53:19.008Z,91520
2017-07-15T10:54:31.331Z,86560
2017-07-15T10:55:43.344Z,22560
2017-07-15T10:56:55.646Z,21984
2017-07-15T10:58:07.357Z,75616
2017-07-15T10:59:19.386Z,20512
2017-07-15T11:00:31.696Z,15848
2017-07-15T11:01:44.617Z,16980
2017-07-15T11:02:57.309Z,19008
2017-07-15T11:04:09.916Z,52512
2017-07-15T11:05:22.538Z,89824
2017-07-15T11:06:35.167Z,91712
2017-07-15T11:07:47.482Z,90560
2017-07-15T11:09:00.099Z,89664
2017-07-15T11:10:11.769Z,92160
2017-07-15T11:11:24.074Z,94720
2017-07-15T11:12:36.738Z,76096
2017-07-15T11:13:49.354Z,36288
2017-07-15T11:15:01.987Z,36416
2017-07-15T11:16:13.662Z,35008
2017-07-15T11:17:26.324Z,98304
2017-07-15T11:18:38.318Z,96608
2017-07-15T11:19:50.644Z,98912
2017-07-15T11:21:02.349Z,84576
2017-07-15T11:22:14.329Z,48960
2017-07-15T11:23:25.665Z,39872
2017-07-15T11:24:37.047Z,34784
2017-07-15T11:25:49.410Z,32256
2017-07-15T11:27:01.698Z,32128
2017-07-15T11:28:14.316Z,31808
2017-07-15T11:29:26.903Z,31360
2017-07-15T11:30:38.877Z,32096
2017-07-15T11:31:50.866Z,31680
2017-07-15T11:33:03.459Z,34976
2017-07-15T11:34:15.440Z,31744
2017-07-15T11:35:28.114Z,31456
2017-07-15T11:36:40.086Z,31648
2017-07-15T11:37:52.395Z,32320
2017-07-15T11:39:04.078Z,32096
2017-07-15T11:40:16.372Z,32288
2017-07-15T11:41:28.726Z,30848
2017-07-15T11:42:40.441Z,29248
2017-07-15T11:43:53.044Z,28224
2017-07-15T11:45:05.369Z,27360
2017-07-15T11:46:18.003Z,26816
2017-07-15T11:47:30.643Z,27264
2017-07-15T11:48:43.200Z,28352
2017-07-15T11:49:54.852Z,30592
2017-07-15T11:51:07.189Z,33024
2017-07-15T11:52:19.152Z,35936
2017-07-15T11:53:31.750Z,70912
2017-07-15T11:54:44.424Z,80608
2017-07-15T11:55:56.366Z,44704
2017-07-15T11:57:08.628Z,33024
2017-07-15T11:58:20.939Z,33216
2017-07-15T11:59:33.227Z,46592
2017-07-15T12:00:45.553Z,71168
2017-07-15T12:01:57.583Z,75616
2017-07-15T12:03:10.171Z,75808
2017-07-15T12:04:22.769Z,72544
2017-07-15T12:05:34.726Z,71776
2017-07-15T12:06:46.722Z,70336
2017-07-15T12:07:59.004Z,70880
2017-07-15T12:09:11.039Z,69824
2017-07-15T12:10:23.315Z,71456
2017-07-15T12:11:35.256Z,69472
2017-07-15T12:12:47.874Z,62464
2017-07-15T12:13:59.856Z,60992
2017-07-15T12:15:12.487Z,67424
2017-07-15T12:16:25.086Z,67232
2017-07-15T12:17:37.042Z,63232
2017-07-15T12:18:49.380Z,60800
2017-07-15T12:20:01.393Z,20064
2017-07-15T12:21:14.012Z,64000
2017-07-15T12:22:25.736Z,64160
2017-07-15T12:23:37.439Z,16940
2017-07-15T12:24:49.466Z,32192
2017-07-15T12:26:01.413Z,69056
2017-07-15T12:27:13.396Z,67296
2017-07-15T12:28:25.733Z,67392
2017-07-15T12:29:37.426Z,68032
2017-07-15T12:30:49.824Z,68800
2017-07-15T12:32:02.168Z,68416
2017-07-15T12:33:13.796Z,67200
2017-07-15T12:34:26.089Z,67712
2017-07-15T12:35:37.765Z,69664
2017-07-15T12:36:50.020Z,66688
2017-07-15T12:38:02.242Z,66912
2017-07-15T12:39:13.319Z,68320
2017-07-15T12:40:24.670Z,69152
2017-07-15T12:41:36.360Z,68640
2017-07-15T12:42:48.369Z,70560
2017-07-15T12:44:01.001Z,72256
2017-07-15T12:45:13.003Z,69792
2017-07-15T12:46:25.653Z,67872
2017-07-15T12:47:38.017Z,67968
2017-07-15T12:48:50.003Z,67328
2017-07-15T12:50:02.288Z,68448
2017-07-15T12:51:14.285Z,68928
2017-07-15T12:52:26.587Z,67712
2017-07-15T12:53:38.945Z,68480
2017-07-15T12:54:51.521Z,67904
2017-07-15T12:56:03.836Z,39808
2017-07-15T12:57:16.469Z,67840
2017-07-15T12:58:29.118Z,66560
2017-07-15T12:59:40.780Z,68032
2017-07-15T13:00:53.033Z,53408
2017-07-15T13:02:05.009Z,62464
2017-07-15T13:03:17.659Z,73344
2017-07-15T13:04:29.026Z,72128
2017-07-15T13:05:41.618Z,72160
2017-07-15T13:06:53.944Z,74976
2017-07-15T13:08:05.940Z,41152
2017-07-15T13:09:18.517Z,72320
2017-07-15T13:10:30.824Z,70816
2017-07-15T13:11:42.761Z,73696
2017-07-15T13:12:54.486Z,39264
2017-07-15T13:14:06.482Z,76384
2017-07-15T13:15:18.804Z,77312
2017-07-15T13:16:31.152Z,29728
2017-07-15T13:17:43.476Z,67104
2017-07-15T13:18:55.422Z,44000
2017-07-15T13:20:07.088Z,39072
2017-07-15T13:21:19.405Z,44896
2017-07-15T13:22:31.401Z,28704
2017-07-15T13:23:42.746Z,30816
2017-07-15T13:24:55.001Z,45344
2017-07-15T13:26:07.447Z,38656
2017-07-15T13:27:19.707Z,62400
2017-07-15T13:28:32.289Z,67712
2017-07-15T13:29:44.927Z,35648
2017-07-15T13:30:57.556Z,34400
2017-07-15T13:32:10.170Z,64320
2017-07-15T13:33:22.480Z,78624
2017-07-15T13:34:35.069Z,33312
2017-07-15T13:35:47.354Z,26272
2017-07-15T13:36:59.656Z,30080
2017-07-15T13:38:11.289Z,27136
2017-07-15T13:39:23.585Z,44960
2017-07-15T13:40:35.575Z,31072
2017-07-15T13:41:47.975Z,56736
2017-07-15T13:43:00.306Z,63552
2017-07-15T13:44:11.670Z,56416
2017-07-15T13:45:23.977Z,67680
2017-07-15T13:46:36.318Z,38624
2017-07-15T13:47:48.624Z,65696
2017-07-15T13:49:00.970Z,62400
2017-07-15T13:50:12.649Z,61664
2017-07-15T13:51:24.959Z,61408
2017-07-15T13:52:36.952Z,44064
2017-07-15T13:53:49.555Z,54592
2017-07-15T13:55:02.244Z,61248
2017-07-15T13:56:14.215Z,37664
2017-07-15T13:57:26.488Z,22944
2017-07-15T13:58:39.129Z,60960
2017-07-15T13:59:51.773Z,58048
2017-07-15T14:01:03.734Z,23520
2017-07-15T14:02:15.706Z,12620
2017-07-15T14:03:28.318Z,13636
2017-07-15T14:04:40.673Z,52544
2017-07-15T14:05:52.730Z,51872
2017-07-15T14:07:05.023Z,54400
2017-07-15T14:08:17.657Z,54272
2017-07-15T14:09:29.969Z,56384
2017-07-15T14:10:42.279Z,58560
2017-07-15T14:11:54.568Z,58080
2017-07-15T14:13:06.272Z,56960
2017-07-15T14:14:18.865Z,56096
2017-07-15T14:15:30.498Z,55584
2017-07-15T14:16:42.545Z,27488
2017-07-15T14:17:54.871Z,19264
2017-07-15T14:19:06.809Z,40608
2017-07-15T14:20:19.079Z,57760
2017-07-15T14:21:31.381Z,57504
2017-07-15T14:22:43.081Z,58048
2017-07-15T14:23:54.846Z,57472
2017-07-15T14:25:06.848Z,56832
2017-07-15T14:26:19.484Z,54592
2017-07-15T14:27:31.478Z,54464
2017-07-15T14:28:43.177Z,53472
2017-07-15T14:29:55.465Z,52928
2017-07-15T14:31:07.804Z,52160
2017-07-15T14:32:20.153Z,48864
2017-07-15T14:33:32.809Z,39040
2017-07-15T14:34:44.834Z,17984
2017-07-15T14:35:57.110Z,15868
2017-07-15T14:37:09.739Z,15504
2017-07-15T14:38:22.314Z,13876
2017-07-15T14:39:34.605Z,12016
2017-07-15T14:40:47.197Z,10120
2017-07-15T14:41:58.932Z,8608
2017-07-15T14:43:10.720Z,7688
2017-07-15T14:44:23.072Z,7020
2017-07-15T14:45:35.343Z,6676
2017-07-15T14:46:47.355Z,6484
2017-07-15T14:47:59.972Z,6436
2017-07-15T14:49:11.666Z,6508
2017-07-15T14:50:24.318Z,6632
2017-07-15T14:51:36.598Z,6712
2017-07-15T14:52:49.193Z,6840
2017-07-15T14:54:01.747Z,7064
2017-07-15T14:55:13.743Z,7396
2017-07-15T14:56:26.034Z,7816
2017-07-15T14:57:38.662Z,8276
2017-07-15T14:58:51.115Z,8856
2017-07-15T15:00:03.729Z,9292
2017-07-15T15:01:15.370Z,9952
2017-07-15T15:02:27.965Z,10652
2017-07-15T15:03:40.238Z,11412
2017-07-15T15:04:52.890Z,12312
2017-07-15T15:06:05.217Z,12956
2017-07-15T15:07:17.202Z,13160
2017-07-15T15:08:29.463Z,13368
2017-07-15T15:09:41.792Z,13872
2017-07-15T15:10:54.070Z,14696
2017-07-15T15:12:06.402Z,15296
2017-07-15T15:13:18.061Z,15908
2017-07-15T15:14:30.721Z,16320
2017-07-15T15:15:43.307Z,17248
2017-07-15T15:16:55.936Z,18976
2017-07-15T15:18:08.598Z,19840
2017-07-15T15:19:20.968Z,20672
2017-07-15T15:20:33.631Z,19808
2017-07-15T15:21:46.197Z,19232
2017-07-15T15:22:58.444Z,18880
2017-07-15T15:24:11.045Z,18336
2017-07-15T15:25:22.694Z,18720
2017-07-15T15:26:35.356Z,18272
2017-07-15T15:27:47.979Z,18304
2017-07-15T15:29:00.287Z,17408
2017-07-15T15:30:12.297Z,17376
2017-07-15T15:31:24.555Z,16624
2017-07-15T15:32:36.485Z,16348
2017-07-15T15:33:48.791Z,16704
2017-07-15T15:35:01.352Z,16952
2017-07-15T15:36:13.350Z,16520
2017-07-15T15:37:25.949Z,15812
2017-07-15T15:38:37.962Z,15216
2017-07-15T15:39:50.588Z,14820
2017-07-15T15:41:03.290Z,14448
2017-07-15T15:42:15.563Z,14340
2017-07-15T15:43:27.877Z,14464
2017-07-15T15:44:39.798Z,14608
2017-07-15T15:45:52.401Z,14804
2017-07-15T15:47:04.689Z,14916
2017-07-15T15:48:17.014Z,14736
2017-07-15T15:49:29.601Z,14348
2017-07-15T15:50:42.198Z,14000
2017-07-15T15:51:54.181Z,13660
2017-07-15T15:53:06.821Z,13284
2017-07-15T15:54:19.446Z,12960
2017-07-15T15:55:32.073Z,12780
2017-07-15T15:56:44.701Z,13004
2017-07-15T15:57:57.014Z,13560